sensor_id;sensor_type;location;lat;lon;timestamp;P1;durP1;ratioP1;P2;durP2;ratioP2
51566;SDS011;37657;53.182;5.638;2023-11-18T00:01:34;25.17;;;20.00;;
51566;SDS011;37657;53.182;5.638;2023-11-18T00:03:59;22.38;;;19.88;;
51566;SDS011;37657;53.182;5.638;2023-11-18T00:06:25;30.23;;;23.55;;
51566;SDS011;37657;53.182;5.638;2023-11-18T00:08:51;24.98;;;22.50;;
51566;SDS011;37657;53.182;5.638;2023-11-18T00:11:17;25.05;;;21.75;;
51566;SDS011;37657;53.182;5.638;2023-11-18T00:13:43;23.90;;;18.85;;
51566;SDS011;37657;53.182;5.638;2023-11-18T00:16:09;24.52;;;21.65;;
51566;SDS011;37657;53.182;5.638;2023-11-18T00:18:40;27.25;;;22.33;;
51566;SDS011;37657;53.182;5.638;2023-11-18T00:21:06;26.17;;;21.20;;
51566;SDS011;37657;53.182;5.638;2023-11-18T00:23:32;24.30;;;21.80;;
51566;SDS011;37657;53.182;5.638;2023-11-18T00:25:58;26.05;;;23.58;;
51566;SDS011;37657;53.182;5.638;2023-11-18T00:28:24;23.00;;;20.40;;
51566;SDS011;37657;53.182;5.638;2023-11-18T00:30:50;25.85;;;23.10;;
51566;SDS011;37657;53.182;5.638;2023-11-18T00:33:16;29.70;;;21.63;;
51566;SDS011;37657;53.182;5.638;2023-11-18T00:35:41;25.63;;;22.77;;
51566;SDS011;37657;53.182;5.638;2023-11-18T00:38:07;32.38;;;22.98;;
51566;SDS011;37657;53.182;5.638;2023-11-18T00:40:33;29.48;;;23.30;;
51566;SDS011;37657;53.182;5.638;2023-11-18T00:42:58;23.38;;;20.95;;
51566;SDS011;37657;53.182;5.638;2023-11-18T00:45:24;45.92;;;25.35;;
51566;SDS011;37657;53.182;5.638;2023-11-18T00:47:50;25.60;;;22.13;;
51566;SDS011;37657;53.182;5.638;2023-11-18T00:50:15;23.77;;;20.90;;
51566;SDS011;37657;53.182;5.638;2023-11-18T00:52:42;25.58;;;21.55;;
51566;SDS011;37657;53.182;5.638;2023-11-18T00:55:08;29.85;;;23.35;;
51566;SDS011;37657;53.182;5.638;2023-11-18T00:57:35;29.80;;;24.58;;
51566;SDS011;37657;53.182;5.638;2023-11-18T01:00:00;22.85;;;20.83;;
51566;SDS011;37657;53.182;5.638;2023-11-18T01:02:26;32.78;;;22.77;;
51566;SDS011;37657;53.182;5.638;2023-11-18T01:04:52;29.85;;;22.42;;
51566;SDS011;37657;53.182;5.638;2023-11-18T01:07:18;25.52;;;22.85;;
51566;SDS011;37657;53.182;5.638;2023-11-18T01:09:44;23.67;;;21.48;;
51566;SDS011;37657;53.182;5.638;2023-11-18T01:12:11;25.60;;;22.55;;
51566;SDS011;37657;53.182;5.638;2023-11-18T01:14:40;31.00;;;24.45;;
51566;SDS011;37657;53.182;5.638;2023-11-18T01:17:07;27.88;;;24.95;;
51566;SDS011;37657;53.182;5.638;2023-11-18T01:19:36;31.17;;;25.60;;
51566;SDS011;37657;53.182;5.638;2023-11-18T01:22:03;25.30;;;21.85;;
51566;SDS011;37657;53.182;5.638;2023-11-18T01:24:31;25.02;;;22.38;;
51566;SDS011;37657;53.182;5.638;2023-11-18T01:26:58;27.95;;;23.80;;
51566;SDS011;37657;53.182;5.638;2023-11-18T01:29:26;34.65;;;28.83;;
51566;SDS011;37657;53.182;5.638;2023-11-18T01:31:52;30.80;;;27.65;;
51566;SDS011;37657;53.182;5.638;2023-11-18T01:34:20;31.05;;;24.42;;
51566;SDS011;37657;53.182;5.638;2023-11-18T01:36:48;32.45;;;25.85;;
51566;SDS011;37657;53.182;5.638;2023-11-18T01:39:18;31.13;;;26.05;;
51566;SDS011;37657;53.182;5.638;2023-11-18T01:41:44;33.78;;;24.02;;
51566;SDS011;37657;53.182;5.638;2023-11-18T01:44:10;28.42;;;22.00;;
51566;SDS011;37657;53.182;5.638;2023-11-18T01:46:38;27.13;;;23.48;;
51566;SDS011;37657;53.182;5.638;2023-11-18T01:49:05;33.70;;;25.80;;
51566;SDS011;37657;53.182;5.638;2023-11-18T01:51:33;27.33;;;22.50;;
51566;SDS011;37657;53.182;5.638;2023-11-18T01:54:00;32.95;;;24.45;;
51566;SDS011;37657;53.182;5.638;2023-11-18T01:56:30;28.63;;;25.80;;
51566;SDS011;37657;53.182;5.638;2023-11-18T01:58:57;32.47;;;24.77;;
51566;SDS011;37657;53.182;5.638;2023-11-18T02:01:24;31.67;;;28.30;;
51566;SDS011;37657;53.182;5.638;2023-11-18T02:03:52;36.60;;;31.40;;
51566;SDS011;37657;53.182;5.638;2023-11-18T02:06:18;32.03;;;28.25;;
51566;SDS011;37657;53.182;5.638;2023-11-18T02:08:44;35.47;;;26.95;;
51566;SDS011;37657;53.182;5.638;2023-11-18T02:14:19;38.88;;;30.00;;
51566;SDS011;37657;53.182;5.638;2023-11-18T02:16:45;31.65;;;28.67;;
51566;SDS011;37657;53.182;5.638;2023-11-18T02:19:20;49.10;;;30.90;;
51566;SDS011;37657;53.182;5.638;2023-11-18T02:21:48;34.95;;;29.55;;
51566;SDS011;37657;53.182;5.638;2023-11-18T02:24:30;38.92;;;32.28;;
51566;SDS011;37657;53.182;5.638;2023-11-18T02:26:58;32.78;;;28.55;;
51566;SDS011;37657;53.182;5.638;2023-11-18T02:29:26;43.30;;;31.02;;
51566;SDS011;37657;53.182;5.638;2023-11-18T02:31:57;41.63;;;31.45;;
51566;SDS011;37657;53.182;5.638;2023-11-18T02:34:28;48.05;;;35.33;;
51566;SDS011;37657;53.182;5.638;2023-11-18T02:36:57;42.80;;;36.33;;
51566;SDS011;37657;53.182;5.638;2023-11-18T02:39:42;44.83;;;35.17;;
51566;SDS011;37657;53.182;5.638;2023-11-18T02:42:08;46.30;;;32.47;;
51566;SDS011;37657;53.182;5.638;2023-11-18T02:44:37;37.72;;;31.67;;
51566;SDS011;37657;53.182;5.638;2023-11-18T02:47:03;41.40;;;35.38;;
51566;SDS011;37657;53.182;5.638;2023-11-18T02:49:30;40.25;;;32.85;;
51566;SDS011;37657;53.182;5.638;2023-11-18T02:51:57;36.20;;;32.78;;
51566;SDS011;37657;53.182;5.638;2023-11-18T02:54:22;40.00;;;35.35;;
51566;SDS011;37657;53.182;5.638;2023-11-18T02:56:48;35.40;;;30.05;;
51566;SDS011;37657;53.182;5.638;2023-11-18T02:59:15;38.10;;;32.20;;
51566;SDS011;37657;53.182;5.638;2023-11-18T03:01:41;43.92;;;32.83;;
51566;SDS011;37657;53.182;5.638;2023-11-18T03:04:07;43.03;;;33.58;;
51566;SDS011;37657;53.182;5.638;2023-11-18T03:06:33;42.78;;;33.28;;
51566;SDS011;37657;53.182;5.638;2023-11-18T03:09:00;40.67;;;32.83;;
51566;SDS011;37657;53.182;5.638;2023-11-18T03:11:26;33.95;;;30.40;;
51566;SDS011;37657;53.182;5.638;2023-11-18T03:13:55;41.85;;;35.00;;
51566;SDS011;37657;53.182;5.638;2023-11-18T03:16:21;37.15;;;31.05;;
51566;SDS011;37657;53.182;5.638;2023-11-18T03:18:49;42.45;;;32.72;;
51566;SDS011;37657;53.182;5.638;2023-11-18T03:21:16;39.35;;;31.05;;
51566;SDS011;37657;53.182;5.638;2023-11-18T03:23:42;38.17;;;30.48;;
51566;SDS011;37657;53.182;5.638;2023-11-18T03:26:08;38.58;;;34.08;;
51566;SDS011;37657;53.182;5.638;2023-11-18T03:28:35;38.15;;;31.35;;
51566;SDS011;37657;53.182;5.638;2023-11-18T03:31:02;40.53;;;30.33;;
51566;SDS011;37657;53.182;5.638;2023-11-18T03:33:29;37.60;;;31.55;;
51566;SDS011;37657;53.182;5.638;2023-11-18T03:35:54;36.08;;;31.55;;
51566;SDS011;37657;53.182;5.638;2023-11-18T03:38:21;33.95;;;28.65;;
51566;SDS011;37657;53.182;5.638;2023-11-18T03:40:47;33.78;;;29.17;;
51566;SDS011;37657;53.182;5.638;2023-11-18T03:43:13;31.48;;;28.10;;
51566;SDS011;37657;53.182;5.638;2023-11-18T03:45:39;43.65;;;30.92;;
51566;SDS011;37657;53.182;5.638;2023-11-18T03:48:05;37.35;;;32.28;;
51566;SDS011;37657;53.182;5.638;2023-11-18T03:50:31;36.78;;;30.35;;
51566;SDS011;37657;53.182;5.638;2023-11-18T03:53:00;35.63;;;30.85;;
51566;SDS011;37657;53.182;5.638;2023-11-18T03:55:29;43.28;;;35.60;;
51566;SDS011;37657;53.182;5.638;2023-11-18T03:57:55;42.83;;;34.00;;
51566;SDS011;37657;53.182;5.638;2023-11-18T04:00:22;40.85;;;31.48;;
51566;SDS011;37657;53.182;5.638;2023-11-18T04:02:54;33.25;;;29.30;;
51566;SDS011;37657;53.182;5.638;2023-11-18T04:05:23;43.03;;;32.20;;
51566;SDS011;37657;53.182;5.638;2023-11-18T04:07:48;48.10;;;37.88;;
51566;SDS011;37657;53.182;5.638;2023-11-18T04:10:14;45.30;;;34.65;;
51566;SDS011;37657;53.182;5.638;2023-11-18T04:12:40;40.58;;;31.23;;
51566;SDS011;37657;53.182;5.638;2023-11-18T04:15:11;38.45;;;31.30;;
51566;SDS011;37657;53.182;5.638;2023-11-18T04:17:37;43.78;;;33.20;;
51566;SDS011;37657;53.182;5.638;2023-11-18T04:20:03;45.17;;;34.08;;
51566;SDS011;37657;53.182;5.638;2023-11-18T04:22:33;36.88;;;31.00;;
51566;SDS011;37657;53.182;5.638;2023-11-18T04:24:59;40.55;;;31.15;;
51566;SDS011;37657;53.182;5.638;2023-11-18T04:27:24;41.70;;;33.03;;
51566;SDS011;37657;53.182;5.638;2023-11-18T04:29:50;38.95;;;32.13;;
51566;SDS011;37657;53.182;5.638;2023-11-18T04:32:16;43.30;;;30.13;;
51566;SDS011;37657;53.182;5.638;2023-11-18T04:34:41;51.38;;;32.35;;
51566;SDS011;37657;53.182;5.638;2023-11-18T04:37:07;42.28;;;33.45;;
51566;SDS011;37657;53.182;5.638;2023-11-18T04:39:33;46.00;;;32.70;;
51566;SDS011;37657;53.182;5.638;2023-11-18T04:41:59;35.90;;;30.95;;
51566;SDS011;37657;53.182;5.638;2023-11-18T04:44:26;37.72;;;33.58;;
51566;SDS011;37657;53.182;5.638;2023-11-18T04:46:52;34.47;;;30.88;;
51566;SDS011;37657;53.182;5.638;2023-11-18T04:49:17;39.72;;;31.67;;
51566;SDS011;37657;53.182;5.638;2023-11-18T04:51:44;47.38;;;33.25;;
51566;SDS011;37657;53.182;5.638;2023-11-18T04:54:10;34.22;;;30.60;;
51566;SDS011;37657;53.182;5.638;2023-11-18T04:56:36;38.92;;;32.17;;
51566;SDS011;37657;53.182;5.638;2023-11-18T04:59:02;35.03;;;29.75;;
51566;SDS011;37657;53.182;5.638;2023-11-18T05:01:30;34.13;;;30.08;;
51566;SDS011;37657;53.182;5.638;2023-11-18T05:03:56;44.05;;;33.05;;
51566;SDS011;37657;53.182;5.638;2023-11-18T05:06:21;35.33;;;31.60;;
51566;SDS011;37657;53.182;5.638;2023-11-18T05:08:47;37.70;;;31.52;;
51566;SDS011;37657;53.182;5.638;2023-11-18T05:11:13;34.78;;;30.88;;
51566;SDS011;37657;53.182;5.638;2023-11-18T05:13:39;32.47;;;29.00;;
51566;SDS011;37657;53.182;5.638;2023-11-18T05:16:07;35.83;;;30.10;;
51566;SDS011;37657;53.182;5.638;2023-11-18T05:18:35;35.28;;;30.42;;
51566;SDS011;37657;53.182;5.638;2023-11-18T05:21:02;43.85;;;32.97;;
51566;SDS011;37657;53.182;5.638;2023-11-18T05:23:30;34.33;;;27.85;;
51566;SDS011;37657;53.182;5.638;2023-11-18T05:25:56;33.33;;;29.13;;
51566;SDS011;37657;53.182;5.638;2023-11-18T05:28:23;42.40;;;32.25;;
51566;SDS011;37657;53.182;5.638;2023-11-18T05:30:49;38.55;;;32.65;;
51566;SDS011;37657;53.182;5.638;2023-11-18T05:33:16;39.10;;;30.63;;
51566;SDS011;37657;53.182;5.638;2023-11-18T05:35:46;34.60;;;30.45;;
51566;SDS011;37657;53.182;5.638;2023-11-18T05:38:17;37.60;;;32.72;;
51566;SDS011;37657;53.182;5.638;2023-11-18T05:40:47;35.72;;;31.88;;
51566;SDS011;37657;53.182;5.638;2023-11-18T05:43:35;47.58;;;33.97;;
51566;SDS011;37657;53.182;5.638;2023-11-18T05:46:02;37.13;;;29.95;;
51566;SDS011;37657;53.182;5.638;2023-11-18T05:48:48;36.08;;;29.40;;
51566;SDS011;37657;53.182;5.638;2023-11-18T05:51:18;34.63;;;31.08;;
51566;SDS011;37657;53.182;5.638;2023-11-18T05:53:45;53.65;;;33.22;;
51566;SDS011;37657;53.182;5.638;2023-11-18T05:56:14;39.20;;;31.02;;
51566;SDS011;37657;53.182;5.638;2023-11-18T05:58:41;40.47;;;32.78;;
51566;SDS011;37657;53.182;5.638;2023-11-18T06:01:11;32.28;;;29.00;;
51566;SDS011;37657;53.182;5.638;2023-11-18T06:03:37;35.55;;;31.75;;
51566;SDS011;37657;53.182;5.638;2023-11-18T06:06:10;48.50;;;34.10;;
51566;SDS011;37657;53.182;5.638;2023-11-18T06:08:37;39.17;;;29.25;;
51566;SDS011;37657;53.182;5.638;2023-11-18T06:11:09;48.10;;;36.08;;
51566;SDS011;37657;53.182;5.638;2023-11-18T06:13:43;33.55;;;28.17;;
51566;SDS011;37657;53.182;5.638;2023-11-18T06:16:19;35.97;;;32.25;;
51566;SDS011;37657;53.182;5.638;2023-11-18T06:18:46;40.47;;;34.47;;
51566;SDS011;37657;53.182;5.638;2023-11-18T06:21:16;58.42;;;36.05;;
51566;SDS011;37657;53.182;5.638;2023-11-18T06:23:43;42.30;;;31.67;;
51566;SDS011;37657;53.182;5.638;2023-11-18T06:26:13;36.35;;;32.55;;
51566;SDS011;37657;53.182;5.638;2023-11-18T06:28:40;37.38;;;31.30;;
51566;SDS011;37657;53.182;5.638;2023-11-18T06:31:06;57.90;;;33.20;;
51566;SDS011;37657;53.182;5.638;2023-11-18T06:33:40;36.58;;;28.20;;
51566;SDS011;37657;53.182;5.638;2023-11-18T06:38:42;36.70;;;30.50;;
51566;SDS011;37657;53.182;5.638;2023-11-18T06:41:11;44.92;;;32.17;;
51566;SDS011;37657;53.182;5.638;2023-11-18T06:43:41;40.03;;;34.65;;
51566;SDS011;37657;53.182;5.638;2023-11-18T06:46:24;34.08;;;28.60;;
51566;SDS011;37657;53.182;5.638;2023-11-18T06:48:52;34.45;;;31.02;;
51566;SDS011;37657;53.182;5.638;2023-11-18T06:51:23;36.55;;;32.42;;
51566;SDS011;37657;53.182;5.638;2023-11-18T06:53:50;33.15;;;29.55;;
51566;SDS011;37657;53.182;5.638;2023-11-18T06:56:17;36.63;;;31.95;;
51566;SDS011;37657;53.182;5.638;2023-11-18T06:58:42;35.05;;;31.02;;
51566;SDS011;37657;53.182;5.638;2023-11-18T07:01:09;39.95;;;31.98;;
51566;SDS011;37657;53.182;5.638;2023-11-18T07:03:38;37.22;;;33.30;;
51566;SDS011;37657;53.182;5.638;2023-11-18T07:06:04;33.30;;;29.48;;
51566;SDS011;37657;53.182;5.638;2023-11-18T07:08:31;37.42;;;29.45;;
51566;SDS011;37657;53.182;5.638;2023-11-18T07:10:57;32.10;;;28.73;;
51566;SDS011;37657;53.182;5.638;2023-11-18T07:13:23;37.67;;;30.55;;
51566;SDS011;37657;53.182;5.638;2023-11-18T07:15:50;32.22;;;29.08;;
51566;SDS011;37657;53.182;5.638;2023-11-18T07:18:15;35.08;;;30.80;;
51566;SDS011;37657;53.182;5.638;2023-11-18T07:20:42;44.25;;;32.40;;
51566;SDS011;37657;53.182;5.638;2023-11-18T07:23:08;42.15;;;30.40;;
51566;SDS011;37657;53.182;5.638;2023-11-18T07:25:34;39.72;;;33.67;;
51566;SDS011;37657;53.182;5.638;2023-11-18T07:28:00;40.50;;;31.30;;
51566;SDS011;37657;53.182;5.638;2023-11-18T07:30:25;43.20;;;32.83;;
51566;SDS011;37657;53.182;5.638;2023-11-18T07:32:51;45.78;;;33.50;;
51566;SDS011;37657;53.182;5.638;2023-11-18T07:35:17;39.00;;;31.33;;
51566;SDS011;37657;53.182;5.638;2023-11-18T07:37:43;44.70;;;35.10;;
51566;SDS011;37657;53.182;5.638;2023-11-18T07:40:09;33.63;;;29.98;;
51566;SDS011;37657;53.182;5.638;2023-11-18T07:42:37;35.25;;;29.38;;
51566;SDS011;37657;53.182;5.638;2023-11-18T07:45:03;39.30;;;31.38;;
51566;SDS011;37657;53.182;5.638;2023-11-18T07:47:38;40.00;;;32.70;;
51566;SDS011;37657;53.182;5.638;2023-11-18T07:50:04;36.17;;;32.38;;
51566;SDS011;37657;53.182;5.638;2023-11-18T07:52:31;45.33;;;33.25;;
51566;SDS011;37657;53.182;5.638;2023-11-18T07:54:56;41.85;;;30.13;;
51566;SDS011;37657;53.182;5.638;2023-11-18T07:57:22;33.47;;;29.25;;
51566;SDS011;37657;53.182;5.638;2023-11-18T07:59:49;40.35;;;33.03;;
51566;SDS011;37657;53.182;5.638;2023-11-18T08:02:15;33.47;;;28.45;;
51566;SDS011;37657;53.182;5.638;2023-11-18T08:04:42;34.65;;;29.85;;
51566;SDS011;37657;53.182;5.638;2023-11-18T08:07:07;39.78;;;29.42;;
51566;SDS011;37657;53.182;5.638;2023-11-18T08:09:35;41.67;;;31.13;;
51566;SDS011;37657;53.182;5.638;2023-11-18T08:12:04;41.85;;;32.38;;
51566;SDS011;37657;53.182;5.638;2023-11-18T08:14:31;29.23;;;26.10;;
51566;SDS011;37657;53.182;5.638;2023-11-18T08:16:57;34.03;;;30.35;;
51566;SDS011;37657;53.182;5.638;2023-11-18T08:19:25;32.22;;;26.08;;
51566;SDS011;37657;53.182;5.638;2023-11-18T08:21:50;35.67;;;27.73;;
51566;SDS011;37657;53.182;5.638;2023-11-18T08:24:17;29.80;;;26.55;;
51566;SDS011;37657;53.182;5.638;2023-11-18T08:26:42;43.23;;;28.27;;
51566;SDS011;37657;53.182;5.638;2023-11-18T08:29:08;35.47;;;25.95;;
51566;SDS011;37657;53.182;5.638;2023-11-18T08:31:34;38.28;;;28.35;;
51566;SDS011;37657;53.182;5.638;2023-11-18T08:34:00;34.22;;;29.63;;
51566;SDS011;37657;53.182;5.638;2023-11-18T08:36:25;40.25;;;26.20;;
51566;SDS011;37657;53.182;5.638;2023-11-18T08:38:52;33.33;;;26.83;;
51566;SDS011;37657;53.182;5.638;2023-11-18T08:41:19;35.50;;;28.20;;
51566;SDS011;37657;53.182;5.638;2023-11-18T08:43:45;33.63;;;24.80;;
51566;SDS011;37657;53.182;5.638;2023-11-18T08:46:14;33.13;;;26.92;;
51566;SDS011;37657;53.182;5.638;2023-11-18T08:48:40;30.85;;;27.63;;
51566;SDS011;37657;53.182;5.638;2023-11-18T08:51:06;32.38;;;26.38;;
51566;SDS011;37657;53.182;5.638;2023-11-18T08:53:33;34.60;;;30.92;;
51566;SDS011;37657;53.182;5.638;2023-11-18T08:56:07;35.78;;;29.13;;
51566;SDS011;37657;53.182;5.638;2023-11-18T08:58:39;32.25;;;26.25;;
51566;SDS011;37657;53.182;5.638;2023-11-18T09:01:06;39.80;;;29.80;;
51566;SDS011;37657;53.182;5.638;2023-11-18T09:03:38;36.40;;;28.67;;
51566;SDS011;37657;53.182;5.638;2023-11-18T09:06:08;31.13;;;26.95;;
51566;SDS011;37657;53.182;5.638;2023-11-18T09:08:53;36.35;;;27.48;;
51566;SDS011;37657;53.182;5.638;2023-11-18T09:11:20;34.75;;;26.52;;
51566;SDS011;37657;53.182;5.638;2023-11-18T09:13:47;39.17;;;30.42;;
51566;SDS011;37657;53.182;5.638;2023-11-18T09:16:16;31.63;;;26.70;;
51566;SDS011;37657;53.182;5.638;2023-11-18T09:18:43;27.17;;;24.45;;
51566;SDS011;37657;53.182;5.638;2023-11-18T09:21:12;36.63;;;27.40;;
51566;SDS011;37657;53.182;5.638;2023-11-18T09:23:44;41.90;;;28.10;;
51566;SDS011;37657;53.182;5.638;2023-11-18T09:26:12;37.20;;;28.95;;
51566;SDS011;37657;53.182;5.638;2023-11-18T09:28:39;36.42;;;29.85;;
51566;SDS011;37657;53.182;5.638;2023-11-18T09:31:06;31.67;;;27.15;;
51566;SDS011;37657;53.182;5.638;2023-11-18T09:33:36;39.08;;;30.30;;
51566;SDS011;37657;53.182;5.638;2023-11-18T09:36:05;28.00;;;24.92;;
51566;SDS011;37657;53.182;5.638;2023-11-18T09:38:36;30.92;;;26.83;;
51566;SDS011;37657;53.182;5.638;2023-11-18T09:41:03;37.22;;;27.40;;
51566;SDS011;37657;53.182;5.638;2023-11-18T09:43:32;40.13;;;27.33;;
51566;SDS011;37657;53.182;5.638;2023-11-18T09:46:07;38.30;;;25.23;;
51566;SDS011;37657;53.182;5.638;2023-11-18T09:48:38;29.10;;;24.40;;
51566;SDS011;37657;53.182;5.638;2023-11-18T09:51:19;38.55;;;27.13;;
51566;SDS011;37657;53.182;5.638;2023-11-18T09:53:48;35.22;;;27.52;;
51566;SDS011;37657;53.182;5.638;2023-11-18T09:59:10;38.70;;;27.20;;
51566;SDS011;37657;53.182;5.638;2023-11-18T10:01:44;39.63;;;25.17;;
51566;SDS011;37657;53.182;5.638;2023-11-18T10:04:18;36.45;;;28.58;;
51566;SDS011;37657;53.182;5.638;2023-11-18T10:06:45;41.38;;;26.13;;
51566;SDS011;37657;53.182;5.638;2023-11-18T10:09:13;36.70;;;26.42;;
51566;SDS011;37657;53.182;5.638;2023-11-18T10:11:43;33.22;;;26.20;;
51566;SDS011;37657;53.182;5.638;2023-11-18T10:14:15;29.05;;;25.40;;
51566;SDS011;37657;53.182;5.638;2023-11-18T10:16:44;30.98;;;27.73;;
51566;SDS011;37657;53.182;5.638;2023-11-18T10:19:13;31.08;;;27.80;;
51566;SDS011;37657;53.182;5.638;2023-11-18T10:21:39;35.85;;;26.95;;
51566;SDS011;37657;53.182;5.638;2023-11-18T10:24:06;38.42;;;31.50;;
51566;SDS011;37657;53.182;5.638;2023-11-18T10:26:42;31.38;;;28.08;;
51566;SDS011;37657;53.182;5.638;2023-11-18T10:29:10;37.33;;;30.83;;
51566;SDS011;37657;53.182;5.638;2023-11-18T10:31:38;30.42;;;26.60;;
51566;SDS011;37657;53.182;5.638;2023-11-18T10:34:10;41.47;;;32.20;;
51566;SDS011;37657;53.182;5.638;2023-11-18T10:36:58;34.08;;;27.85;;
51566;SDS011;37657;53.182;5.638;2023-11-18T10:39:28;40.10;;;29.05;;
51566;SDS011;37657;53.182;5.638;2023-11-18T10:41:58;44.03;;;30.38;;
51566;SDS011;37657;53.182;5.638;2023-11-18T10:44:25;36.78;;;29.45;;
51566;SDS011;37657;53.182;5.638;2023-11-18T10:46:51;31.42;;;26.75;;
51566;SDS011;37657;53.182;5.638;2023-11-18T10:49:23;34.30;;;27.38;;
51566;SDS011;37657;53.182;5.638;2023-11-18T10:51:52;40.47;;;29.92;;
51566;SDS011;37657;53.182;5.638;2023-11-18T10:54:18;29.75;;;25.45;;
51566;SDS011;37657;53.182;5.638;2023-11-18T10:56:51;32.03;;;23.50;;
51566;SDS011;37657;53.182;5.638;2023-11-18T10:59:32;30.73;;;26.17;;
51566;SDS011;37657;53.182;5.638;2023-11-18T11:01:58;37.70;;;27.30;;
51566;SDS011;37657;53.182;5.638;2023-11-18T11:04:23;31.02;;;26.38;;
51566;SDS011;37657;53.182;5.638;2023-11-18T11:06:49;36.03;;;23.73;;
51566;SDS011;37657;53.182;5.638;2023-11-18T11:09:25;32.35;;;25.50;;
51566;SDS011;37657;53.182;5.638;2023-11-18T11:12:00;42.90;;;25.73;;
51566;SDS011;37657;53.182;5.638;2023-11-18T11:14:35;34.05;;;25.70;;
51566;SDS011;37657;53.182;5.638;2023-11-18T11:17:12;24.08;;;21.33;;
51566;SDS011;37657;53.182;5.638;2023-11-18T11:22:48;31.33;;;23.77;;
51566;SDS011;37657;53.182;5.638;2023-11-18T11:28:16;33.35;;;25.52;;
51566;SDS011;37657;53.182;5.638;2023-11-18T11:36:09;35.45;;;27.05;;
51566;SDS011;37657;53.182;5.638;2023-11-18T11:38:38;34.80;;;26.55;;
51566;SDS011;37657;53.182;5.638;2023-11-18T11:41:04;28.23;;;23.73;;
51566;SDS011;37657;53.182;5.638;2023-11-18T11:43:33;29.75;;;24.35;;
51566;SDS011;37657;53.182;5.638;2023-11-18T11:46:00;26.90;;;24.02;;
51566;SDS011;37657;53.182;5.638;2023-11-18T11:48:35;29.05;;;23.52;;
51566;SDS011;37657;53.182;5.638;2023-11-18T11:54:04;30.92;;;24.88;;
51566;SDS011;37657;53.182;5.638;2023-11-18T11:56:47;29.05;;;22.50;;
51566;SDS011;37657;53.182;5.638;2023-11-18T12:02:03;28.17;;;24.42;;
51566;SDS011;37657;53.182;5.638;2023-11-18T12:04:33;28.88;;;22.92;;
51566;SDS011;37657;53.182;5.638;2023-11-18T12:07:03;27.80;;;20.35;;
51566;SDS011;37657;53.182;5.638;2023-11-18T12:09:30;29.80;;;25.25;;
51566;SDS011;37657;53.182;5.638;2023-11-18T12:12:02;25.63;;;21.40;;
51566;SDS011;37657;53.182;5.638;2023-11-18T12:14:29;31.15;;;24.13;;
51566;SDS011;37657;53.182;5.638;2023-11-18T12:17:03;32.63;;;25.05;;
51566;SDS011;37657;53.182;5.638;2023-11-18T12:19:35;29.65;;;22.08;;
51566;SDS011;37657;53.182;5.638;2023-11-18T12:22:10;32.22;;;24.67;;
51566;SDS011;37657;53.182;5.638;2023-11-18T12:24:43;27.05;;;23.40;;
51566;SDS011;37657;53.182;5.638;2023-11-18T12:35:26;37.15;;;23.27;;
51566;SDS011;37657;53.182;5.638;2023-11-18T12:43:16;28.13;;;22.85;;
51566;SDS011;37657;53.182;5.638;2023-11-18T12:45:44;39.47;;;21.63;;
51566;SDS011;37657;53.182;5.638;2023-11-18T12:48:41;42.17;;;24.75;;
51566;SDS011;37657;53.182;5.638;2023-11-18T12:51:09;37.20;;;24.45;;
51566;SDS011;37657;53.182;5.638;2023-11-18T12:53:46;29.38;;;23.17;;
51566;SDS011;37657;53.182;5.638;2023-11-18T12:56:19;31.23;;;24.65;;
51566;SDS011;37657;53.182;5.638;2023-11-18T12:58:46;30.83;;;21.98;;
51566;SDS011;37657;53.182;5.638;2023-11-18T13:01:12;35.80;;;26.10;;
51566;SDS011;37657;53.182;5.638;2023-11-18T13:03:41;32.00;;;24.15;;
51566;SDS011;37657;53.182;5.638;2023-11-18T13:06:10;29.58;;;24.40;;
51566;SDS011;37657;53.182;5.638;2023-11-18T13:08:40;31.08;;;25.38;;
51566;SDS011;37657;53.182;5.638;2023-11-18T13:11:07;33.53;;;22.70;;
51566;SDS011;37657;53.182;5.638;2023-11-18T13:13:38;27.85;;;24.58;;
51566;SDS011;37657;53.182;5.638;2023-11-18T13:16:04;37.78;;;25.20;;
51566;SDS011;37657;53.182;5.638;2023-11-18T13:18:46;30.15;;;23.42;;
51566;SDS011;37657;53.182;5.638;2023-11-18T13:21:17;30.80;;;26.25;;
51566;SDS011;37657;53.182;5.638;2023-11-18T13:23:48;26.65;;;20.38;;
51566;SDS011;37657;53.182;5.638;2023-11-18T13:26:17;24.73;;;20.30;;
51566;SDS011;37657;53.182;5.638;2023-11-18T13:28:48;33.55;;;23.65;;
51566;SDS011;37657;53.182;5.638;2023-11-18T13:31:14;24.38;;;18.70;;
51566;SDS011;37657;53.182;5.638;2023-11-18T13:33:43;31.50;;;19.45;;
51566;SDS011;37657;53.182;5.638;2023-11-18T13:36:12;25.48;;;21.42;;
51566;SDS011;37657;53.182;5.638;2023-11-18T13:38:39;23.75;;;18.52;;
51566;SDS011;37657;53.182;5.638;2023-11-18T13:41:06;25.67;;;18.52;;
51566;SDS011;37657;53.182;5.638;2023-11-18T13:43:43;25.70;;;18.83;;
51566;SDS011;37657;53.182;5.638;2023-11-18T13:46:11;32.13;;;19.27;;
51566;SDS011;37657;53.182;5.638;2023-11-18T13:48:40;23.42;;;19.45;;
51566;SDS011;37657;53.182;5.638;2023-11-18T13:51:09;19.80;;;15.80;;
51566;SDS011;37657;53.182;5.638;2023-11-18T13:53:40;19.15;;;15.35;;
51566;SDS011;37657;53.182;5.638;2023-11-18T13:56:09;17.33;;;14.45;;
51566;SDS011;37657;53.182;5.638;2023-11-18T13:58:35;18.50;;;15.90;;
51566;SDS011;37657;53.182;5.638;2023-11-18T14:01:05;18.05;;;15.27;;
51566;SDS011;37657;53.182;5.638;2023-11-18T14:03:32;16.08;;;13.77;;
51566;SDS011;37657;53.182;5.638;2023-11-18T14:06:00;16.67;;;14.80;;
51566;SDS011;37657;53.182;5.638;2023-11-18T14:08:27;16.10;;;13.20;;
51566;SDS011;37657;53.182;5.638;2023-11-18T14:10:53;16.08;;;13.05;;
51566;SDS011;37657;53.182;5.638;2023-11-18T14:13:19;16.35;;;13.48;;
51566;SDS011;37657;53.182;5.638;2023-11-18T14:15:44;15.35;;;13.73;;
51566;SDS011;37657;53.182;5.638;2023-11-18T14:18:12;16.88;;;13.20;;
51566;SDS011;37657;53.182;5.638;2023-11-18T14:20:39;16.20;;;14.50;;
51566;SDS011;37657;53.182;5.638;2023-11-18T14:23:05;17.02;;;15.18;;
51566;SDS011;37657;53.182;5.638;2023-11-18T14:25:34;19.63;;;12.93;;
51566;SDS011;37657;53.182;5.638;2023-11-18T14:28:00;16.60;;;13.38;;
51566;SDS011;37657;53.182;5.638;2023-11-18T14:30:27;17.70;;;15.50;;
51566;SDS011;37657;53.182;5.638;2023-11-18T14:32:53;15.55;;;12.10;;
51566;SDS011;37657;53.182;5.638;2023-11-18T14:35:18;14.68;;;13.27;;
51566;SDS011;37657;53.182;5.638;2023-11-18T14:37:45;15.63;;;14.00;;
51566;SDS011;37657;53.182;5.638;2023-11-18T14:40:12;28.42;;;13.52;;
51566;SDS011;37657;53.182;5.638;2023-11-18T14:42:40;13.75;;;12.35;;
51566;SDS011;37657;53.182;5.638;2023-11-18T14:45:07;14.65;;;13.15;;
51566;SDS011;37657;53.182;5.638;2023-11-18T14:47:33;17.48;;;13.75;;
51566;SDS011;37657;53.182;5.638;2023-11-18T14:49:59;23.27;;;13.48;;
51566;SDS011;37657;53.182;5.638;2023-11-18T14:52:27;28.25;;;13.27;;
51566;SDS011;37657;53.182;5.638;2023-11-18T14:54:52;15.43;;;13.60;;
51566;SDS011;37657;53.182;5.638;2023-11-18T14:57:18;13.73;;;12.00;;
51566;SDS011;37657;53.182;5.638;2023-11-18T14:59:44;15.73;;;12.70;;
51566;SDS011;37657;53.182;5.638;2023-11-18T15:02:09;18.77;;;13.60;;
51566;SDS011;37657;53.182;5.638;2023-11-18T15:04:35;12.98;;;11.55;;
51566;SDS011;37657;53.182;5.638;2023-11-18T15:07:01;15.48;;;10.98;;